Time;durP1;ratioP1;P1;durP2;ratioP2;P2;SDS_P1;SDS_P2;PMS_P1;PMS_P2;Temp;Humidity;BMP_temperature;BMP_pressure;BME280_temperature;BME280_humidity;BME280_pressure;Samples;Min_cycle;Max_cycle;Signal;HPM_P1;HPM_P2
2021/06/10 00:00:11;;;;;;;2.10;1.40;;;;;;;16.18;76.45;99040.97;1747563;79;22448;-56
2021/06/10 00:02:42;;;;;;;4.83;1.10;;;;;;;16.16;76.40;99034.80;1754630;79;21362;-57
2021/06/10 00:05:10;;;;;;;4.15;1.10;;;;;;;16.13;76.44;99032.85;1752978;79;21577;-57
2021/06/10 00:07:36;;;;;;;2.02;1.10;;;;;;;16.12;76.45;99036.55;1751300;79;21121;-59
2021/06/10 00:10:08;;;;;;;1.15;1.05;;;;;;;16.11;76.46;99034.82;1752818;79;21106;-58
2021/06/10 00:12:36;;;;;;;2.80;1.10;;;;;;;16.11;76.45;99034.82;1751906;79;21753;-56
2021/06/10 00:15:07;;;;;;;1.20;1.00;;;;;;;16.10;76.43;99036.67;1744088;79;21056;-57
2021/06/10 00:17:34;;;;;;;5.70;1.30;;;;;;;16.09;76.45;99034.08;1754570;79;21030;-57
2021/06/10 00:20:00;;;;;;;1.67;1.57;;;;;;;16.07;76.43;99036.08;1750482;79;21412;-57
2021/06/10 00:22:26;;;;;;;1.65;1.00;;;;;;;16.05;76.38;99025.83;1750657;79;20892;-58
2021/06/10 00:24:53;;;;;;;3.77;1.10;;;;;;;16.02;76.26;99022.00;1755856;79;20899;-56
2021/06/10 00:27:22;;;;;;;1.00;0.90;;;;;;;15.99;76.27;99021.75;1749825;79;21549;-57
2021/06/10 00:29:48;;;;;;;1.57;0.80;;;;;;;15.96;76.14;99021.16;1753503;79;21310;-56
2021/06/10 00:33:21;;;;;;;1.87;1.13;;;;;;;15.96;76.33;99017.95;1793402;78;25655;-58
2021/06/10 00:35:47;;;;;;;1.80;1.00;;;;;;;15.90;76.40;99019.81;1764302;79;21175;-59
2021/06/10 00:38:14;;;;;;;9.20;1.25;;;;;;;15.88;76.41;99021.30;1765510;79;21143;-59
2021/06/10 00:40:40;;;;;;;2.87;1.05;;;;;;;15.85;76.43;99022.88;1763945;79;20957;-58
2021/06/10 00:43:06;;;;;;;1.87;1.02;;;;;;;15.84;76.43;99021.64;1742211;80;21530;-60
2021/06/10 00:45:32;;;;;;;4.72;1.30;;;;;;;15.82;76.45;99013.62;1736495;81;21069;-55
2021/06/10 00:47:59;;;;;;;4.45;0.90;;;;;;;15.81;76.43;99017.84;1733237;81;21045;-56
2021/06/10 00:50:33;;;;;;;1.47;1.00;;;;;;;15.78;76.43;99013.52;1736676;81;21254;-59
2021/06/10 00:53:00;;;;;;;5.67;1.17;;;;;;;15.77;76.43;99014.51;1736482;81;21129;-59
2021/06/10 00:55:27;;;;;;;1.65;1.20;;;;;;;15.76;76.55;99017.34;1733463;81;21050;-58
2021/06/10 00:57:53;;;;;;;1.35;1.07;;;;;;;15.75;76.58;99006.98;1735539;81;21097;-56
2021/06/10 01:00:21;;;;;;;4.30;1.60;;;;;;;15.73;76.52;99019.83;1734744;81;21129;-57
2021/06/10 01:02:48;;;;;;;1.98;1.10;;;;;;;15.71;76.35;99021.80;1740339;81;21212;-57
2021/06/10 01:05:14;;;;;;;1.10;1.00;;;;;;;15.67;76.43;99014.01;1735288;81;21062;-58
2021/06/10 01:07:55;;;;;;;3.98;1.82;;;;;;;15.65;76.31;99012.77;1734682;81;21575;-59
2021/06/10 01:10:33;;;;;;;2.20;1.00;;;;;;;15.62;76.37;99010.33;1738232;81;21487;-58
2021/06/10 01:13:07;;;;;;;1.00;0.85;;;;;;;15.58;76.51;99015.61;1733724;81;21080;-58
2021/06/10 01:15:38;;;;;;;1.10;1.00;;;;;;;15.56;76.57;99004.05;1678473;83;21138;-56
2021/06/10 01:18:05;;;;;;;1.20;1.10;;;;;;;15.55;76.74;99005.52;1682162;83;21050;-57
2021/06/10 01:20:31;;;;;;;2.80;1.27;;;;;;;15.54;76.75;99005.14;1702475;82;21131;-55
2021/06/10 01:23:06;;;;;;;4.97;1.35;;;;;;;15.51;76.71;99007.56;1705879;82;21144;-57
2021/06/10 01:26:00;;;;;;;3.37;1.25;;;;;;;15.48;76.75;99009.19;1702291;82;21119;-58
2021/06/10 01:28:33;;;;;;;3.55;1.07;;;;;;;15.46;76.93;99009.80;1706851;82;22765;-58
2021/06/10 01:31:05;;;;;;;1.15;1.05;;;;;;;15.45;77.01;99005.36;1705574;82;20923;-52
2021/06/10 01:33:36;;;;;;;6.25;1.25;;;;;;;15.44;77.07;99009.05;1695751;83;21038;-53
2021/06/10 01:36:12;;;;;;;0.98;0.93;;;;;;;15.44;77.12;99004.98;1696016;83;21108;-56
2021/06/10 01:38:40;;;;;;;4.35;1.20;;;;;;;15.43;77.23;99003.25;1697448;83;21066;-52
2021/06/10 01:41:06;;;;;;;4.10;1.10;;;;;;;15.43;77.17;99008.19;1693818;83;21573;-53
2021/06/10 01:43:38;;;;;;;5.90;1.50;;;;;;;15.42;77.22;99007.81;1696097;83;23044;-52
2021/06/10 01:46:04;;;;;;;2.47;1.35;;;;;;;15.41;77.26;99012.86;1728137;82;21341;-56
2021/06/10 01:48:31;;;;;;;8.78;2.00;;;;;;;15.41;77.25;99021.48;1727168;81;21125;-56
2021/06/10 01:51:00;;;;;;;1.00;0.90;;;;;;;15.37;77.19;99022.24;1728179;82;21176;-54
2021/06/10 01:53:26;;;;;;;1.45;0.90;;;;;;;15.38;77.28;99023.11;1730383;81;21114;-55
2021/06/10 01:55:54;;;;;;;1.20;1.10;;;;;;;15.36;77.32;99028.64;1730556;81;21078;-55
2021/06/10 01:58:21;;;;;;;1.40;1.07;;;;;;;15.36;77.27;99027.29;1729042;81;21113;-56
2021/06/10 02:00:49;;;;;;;1.40;1.30;;;;;;;15.37;77.36;99024.09;1730896;81;21050;-55
2021/06/10 02:03:16;;;;;;;2.35;1.20;;;;;;;15.37;77.44;99021.38;1727858;82;21809;-56
2021/06/10 02:05:43;;;;;;;3.65;1.52;;;;;;;15.39;77.45;99022.12;1729082;81;21160;-56
2021/06/10 02:08:12;;;;;;;3.25;1.30;;;;;;;15.39;77.76;99014.86;1730406;81;21025;-56
2021/06/10 02:10:43;;;;;;;3.40;1.27;;;;;;;15.39;77.49;99009.43;1728422;81;21049;-55
2021/06/10 02:13:11;;;;;;;5.65;1.30;;;;;;;15.40;77.68;99012.97;1664093;83;21130;-57
2021/06/10 02:15:38;;;;;;;6.03;1.72;;;;;;;15.39;77.76;99010.79;1729522;81;21022;-55
2021/06/10 02:18:04;;;;;;;2.65;1.22;;;;;;;15.41;77.84;99008.80;1726409;81;22226;-56
2021/06/10 02:20:30;;;;;;;1.20;1.10;;;;;;;15.42;77.91;99013.72;1731104;81;21100;-57
2021/06/10 02:22:58;;;;;;;4.30;1.00;;;;;;;15.43;77.97;99010.90;1733545;81;21221;-55
2021/06/10 02:25:25;;;;;;;1.35;1.25;;;;;;;15.46;78.06;99006.59;1702517;82;21404;-58
2021/06/10 02:27:51;;;;;;;1.37;1.12;;;;;;;15.51;78.10;99010.28;1694092;83;20970;-56
2021/06/10 02:30:19;;;;;;;6.33;2.10;;;;;;;15.54;78.14;99010.08;1693174;83;21783;-56
2021/06/10 02:32:45;;;;;;;2.05;1.35;;;;;;;15.59;78.15;99016.48;1731822;81;21037;-55
2021/06/10 02:35:13;;;;;;;1.70;1.47;;;;;;;15.60;78.13;99010.94;1668342;83;21084;-54
2021/06/10 02:37:41;;;;;;;3.37;1.05;;;;;;;15.61;78.16;99009.09;1670965;84;21062;-56
2021/06/10 02:40:10;;;;;;;1.17;1.07;;;;;;;15.62;78.19;99014.39;1732661;81;20935;-55
2021/06/10 02:42:38;;;;;;;4.05;1.20;;;;;;;15.65;78.24;99013.30;1731984;81;21104;-57
2021/06/10 02:45:06;;;;;;;3.45;1.10;;;;;;;15.68;78.25;99008.95;1731741;81;21058;-56
2021/06/10 02:47:33;;;;;;;1.22;1.00;;;;;;;15.72;78.32;99015.39;1730519;81;21046;-55
2021/06/10 02:49:59;;;;;;;1.15;1.05;;;;;;;15.77;78.33;99020.42;1730742;81;20959;-55
2021/06/10 02:52:26;;;;;;;1.82;1.10;;;;;;;15.81;78.34;99016.00;1697677;82;20969;-54
2021/06/10 02:54:52;;;;;;;4.83;1.30;;;;;;;15.85;78.32;99017.45;1692363;83;22621;-55
2021/06/10 02:57:20;;;;;;;3.98;1.40;;;;;;;15.87;78.32;99008.70;1691720;83;21074;-55
2021/06/10 02:59:46;;;;;;;1.90;1.55;;;;;;;15.90;78.31;99014.39;1672299;83;21435;-55
2021/06/10 03:02:12;;;;;;;3.10;1.72;;;;;;;15.90;78.35;99008.95;1728391;81;21077;-54
2021/06/10 03:04:43;;;;;;;3.25;1.40;;;;;;;15.91;78.36;99009.30;1729372;81;21074;-54
2021/06/10 03:07:14;;;;;;;3.62;1.47;;;;;;;15.93;78.37;99014.61;1727578;81;21232;-55
2021/06/10 03:09:41;;;;;;;4.95;1.42;;;;;;;15.94;78.37;99012.27;1727248;81;21102;-54
2021/06/10 03:12:09;;;;;;;3.30;1.70;;;;;;;15.94;78.56;99017.70;1667150;83;21073;-55
2021/06/10 03:14:36;;;;;;;4.00;1.45;;;;;;;15.93;78.60;99004.62;1713608;82;21389;-55
2021/06/10 03:17:04;;;;;;;1.52;1.42;;;;;;;15.96;78.66;98999.44;1724620;80;21467;-55
2021/06/10 03:19:31;;;;;;;3.72;1.98;;;;;;;15.99;78.62;99002.75;1730652;81;21100;-55
2021/06/10 03:21:57;;;;;;;1.65;1.55;;;;;;;16.05;78.61;99009.55;1731617;81;20934;-56
2021/06/10 03:24:24;;;;;;;4.10;2.17;;;;;;;16.07;78.60;99007.58;1728390;81;20914;-55
2021/06/10 03:26:50;;;;;;;1.95;1.85;;;;;;;16.10;78.58;99010.87;1730744;81;20967;-55
2021/06/10 03:29:18;;;;;;;1.95;1.85;;;;;;;16.13;78.60;99010.64;1732960;81;21520;-55
2021/06/10 03:31:44;;;;;;;1.85;1.75;;;;;;;16.15;78.54;99005.09;1732078;81;21592;-56
2021/06/10 03:34:11;;;;;;;4.85;1.42;;;;;;;16.17;78.48;99013.94;1731786;81;20938;-56
2021/06/10 03:36:37;;;;;;;2.87;1.82;;;;;;;16.19;78.54;99009.26;1731094;81;20919;-56
2021/06/10 03:39:04;;;;;;;1.37;1.27;;;;;;;16.23;78.52;99014.81;1733583;81;21019;-55
2021/06/10 03:41:32;;;;;;;3.05;1.70;;;;;;;16.27;78.43;99009.48;1727658;81;20942;-56
2021/06/10 03:43:58;;;;;;;1.85;1.67;;;;;;;16.32;78.33;99016.77;1725312;82;21036;-54
2021/06/10 03:46:25;;;;;;;1.62;1.50;;;;;;;16.33;78.27;99008.99;1734180;81;20954;-56
2021/06/10 03:48:51;;;;;;;1.65;1.55;;;;;;;16.36;78.27;99006.49;1736920;81;20923;-54
2021/06/10 03:51:19;;;;;;;2.33;1.50;;;;;;;16.41;78.25;99006.99;1727521;81;21000;-54
2021/06/10 03:53:47;;;;;;;1.98;1.87;;;;;;;16.43;78.17;99005.84;1730062;81;21101;-55
2021/06/10 03:56:13;;;;;;;2.77;1.85;;;;;;;16.47;78.10;99005.97;1731268;81;21158;-55
2021/06/10 03:58:40;;;;;;;3.90;1.95;;;;;;;16.48;78.08;99004.98;1726481;81;21033;-55
2021/06/10 04:01:07;;;;;;;2.87;2.00;;;;;;;16.50;78.10;99001.62;1732131;81;21034;-55
2021/06/10 04:03:34;;;;;;;2.12;1.92;;;;;;;16.54;78.13;99011.75;1729043;81;21438;-54
2021/06/10 04:06:02;;;;;;;2.55;1.50;;;;;;;16.57;78.00;99006.06;1729924;81;21105;-55
2021/06/10 04:08:28;;;;;;;6.17;2.12;;;;;;;16.60;77.93;99006.65;1733178;82;21159;-56
2021/06/10 04:10:55;;;;;;;1.85;1.70;;;;;;;16.64;77.82;99001.37;1731873;81;21115;-56
2021/06/10 04:13:21;;;;;;;2.02;1.90;;;;;;;16.69;77.75;98999.60;1730948;81;22072;-55
2021/06/10 04:15:49;;;;;;;2.05;1.77;;;;;;;16.73;77.74;99004.30;1667329;83;21149;-55
2021/06/10 04:18:19;;;;;;;2.62;2.12;;;;;;;16.80;77.68;98997.34;1729375;81;21164;-56
2021/06/10 04:20:47;;;;;;;3.25;2.15;;;;;;;16.87;77.61;99004.83;1671240;83;22226;-56
2021/06/10 04:23:14;;;;;;;2.92;2.72;;;;;;;16.93;77.47;98999.35;1672157;84;21398;-55
2021/06/10 04:25:40;;;;;;;1.95;1.85;;;;;;;16.94;77.25;99011.95;1732241;81;20954;-55
2021/06/10 04:28:07;;;;;;;3.27;2.22;;;;;;;16.93;77.07;99008.38;1736766;80;20893;-55
2021/06/10 04:30:33;;;;;;;2.27;1.98;;;;;;;16.95;77.13;99003.67;1733160;81;20946;-55
2021/06/10 04:32:59;;;;;;;3.75;2.20;;;;;;;16.96;77.07;99008.13;1691672;83;21112;-56
2021/06/10 04:35:26;;;;;;;4.35;2.30;;;;;;;17.02;77.17;99014.88;1722476;82;21460;-56
2021/06/10 04:37:52;;;;;;;2.72;2.52;;;;;;;17.06;77.22;99010.91;1722702;82;20986;-55
2021/06/10 04:40:19;;;;;;;2.30;2.10;;;;;;;17.12;77.07;99010.87;1723201;82;21089;-56
2021/06/10 04:42:45;;;;;;;2.33;2.00;;;;;;;17.21;77.02;99005.49;1724339;82;21161;-56
2021/06/10 04:45:12;;;;;;;2.77;2.58;;;;;;;17.30;76.95;99011.98;1723733;82;21201;-56
2021/06/10 04:47:39;;;;;;;3.22;2.92;;;;;;;17.40;76.33;99008.34;1721729;82;21100;-55
2021/06/10 04:50:07;;;;;;;2.92;2.45;;;;;;;17.46;76.14;99002.84;1723404;82;21053;-56
2021/06/10 04:52:33;;;;;;;3.20;2.90;;;;;;;17.51;75.73;99011.48;1723046;82;21082;-56
2021/06/10 04:54:59;;;;;;;4.67;2.12;;;;;;;17.52;75.44;99011.84;1722404;82;21121;-56
2021/06/10 04:57:26;;;;;;;2.45;2.25;;;;;;;17.54;75.45;99013.91;1719227;81;22417;-54
2021/06/10 04:59:52;;;;;;;3.40;3.10;;;;;;;17.62;75.46;99003.73;1722192;82;21371;-55
2021/06/10 05:02:19;;;;;;;2.27;1.90;;;;;;;17.68;75.08;99016.82;1721309;82;20990;-55
2021/06/10 05:04:45;;;;;;;2.05;1.92;;;;;;;17.74;75.25;99018.48;1716471;82;22450;-56
2021/06/10 05:07:12;;;;;;;3.35;3.15;;;;;;;17.83;75.01;99007.77;1721422;82;21642;-56
2021/06/10 05:09:38;;;;;;;2.75;2.10;;;;;;;17.93;74.81;99004.59;1723610;82;21130;-56
2021/06/10 05:12:06;;;;;;;5.67;2.22;;;;;;;18.01;74.56;99009.70;1722236;82;21081;-56
2021/06/10 05:14:32;;;;;;;4.75;2.20;;;;;;;18.08;74.35;99005.42;1688892;82;21101;-55
2021/06/10 05:16:59;;;;;;;5.55;2.00;;;;;;;18.15;74.18;99003.86;1690327;83;21166;-56
2021/06/10 05:19:25;;;;;;;2.27;2.17;;;;;;;18.24;74.25;99010.83;1720088;82;21069;-58
2021/06/10 05:21:51;;;;;;;2.35;2.15;;;;;;;18.30;74.34;99014.34;1664861;83;22845;-55
2021/06/10 05:24:19;;;;;;;2.17;1.95;;;;;;;18.36;73.95;99004.27;1719425;82;21623;-55
2021/06/10 05:26:45;;;;;;;4.70;2.42;;;;;;;18.44;73.93;99006.65;1720701;82;21394;-56
2021/06/10 05:29:11;;;;;;;2.47;1.98;;;;;;;18.55;73.79;99002.91;1661259;83;21742;-56
2021/06/10 05:31:38;;;;;;;2.27;1.92;;;;;;;18.64;73.44;99003.95;1722190;81;21508;-56
2021/06/10 05:34:04;;;;;;;3.27;1.52;;;;;;;18.73;73.31;99005.81;1720681;82;22538;-56
2021/06/10 05:36:30;;;;;;;3.22;1.72;;;;;;;18.80;72.82;99002.37;1720480;81;21093;-56
2021/06/10 05:38:57;;;;;;;1.70;1.60;;;;;;;18.86;72.33;99008.64;1716548;81;21030;-55
2021/06/10 05:41:23;;;;;;;1.27;1.17;;;;;;;18.90;71.41;99011.41;1717868;81;21054;-55
2021/06/10 05:43:49;;;;;;;1.62;1.52;;;;;;;18.90;71.27;99003.23;1720705;81;21061;-55
2021/06/10 05:46:15;;;;;;;1.60;1.50;;;;;;;18.96;71.60;99011.86;1642236;85;21799;-55
2021/06/10 05:48:42;;;;;;;1.75;1.60;;;;;;;19.03;71.56;99009.77;1721991;81;20931;-55
2021/06/10 05:51:08;;;;;;;1.40;1.30;;;;;;;19.11;70.85;99011.77;1718919;81;21047;-56
2021/06/10 05:53:36;;;;;;;1.62;1.30;;;;;;;19.19;70.71;99012.77;1718878;81;21150;-56
2021/06/10 05:56:03;;;;;;;1.20;1.10;;;;;;;19.28;70.07;99015.11;1718190;81;21059;-56
2021/06/10 05:58:30;;;;;;;1.77;1.22;;;;;;;19.34;69.43;99019.11;1720685;81;21719;-55
2021/06/10 06:00:56;;;;;;;3.27;1.10;;;;;;;19.40;69.41;99018.02;1717608;81;21057;-55
2021/06/10 06:03:22;;;;;;;2.17;1.22;;;;;;;19.47;69.57;99020.57;1717995;81;21101;-55
2021/06/10 06:05:49;;;;;;;1.20;1.10;;;;;;;19.56;69.08;99013.36;1721925;81;21082;-56
2021/06/10 06:08:16;;;;;;;2.65;1.37;;;;;;;19.62;69.05;99016.85;1720995;81;21121;-56
2021/06/10 06:10:48;;;;;;;5.95;1.30;;;;;;;19.65;68.03;99020.63;1725107;81;21489;-55
2021/06/10 06:13:15;;;;;;;1.10;1.00;;;;;;;19.63;68.02;99015.34;1724756;81;21363;-56
2021/06/10 06:15:41;;;;;;;1.27;1.17;;;;;;;19.63;68.02;99015.34;1722438;81;21052;-55
2021/06/10 06:18:09;;;;;;;4.25;1.50;;;;;;;19.65;67.88;99013.80;1725166;82;20911;-55
2021/06/10 06:20:35;;;;;;;1.15;1.12;;;;;;;19.70;68.13;99016.97;1725482;81;20986;-56
2021/06/10 06:23:02;;;;;;;1.50;1.25;;;;;;;19.74;68.45;99017.52;1723604;81;22206;-56
2021/06/10 06:25:28;;;;;;;2.42;1.00;;;;;;;19.77;68.11;99016.72;1717335;81;21046;-57
2021/06/10 06:27:55;;;;;;;1.75;1.10;;;;;;;19.80;67.86;99016.94;1723154;81;22167;-55
2021/06/10 06:30:23;;;;;;;5.12;0.80;;;;;;;19.81;67.67;99023.62;1726767;81;21720;-56
2021/06/10 06:32:49;;;;;;;1.80;1.00;;;;;;;19.83;67.00;99013.88;1718837;81;21068;-56
2021/06/10 06:35:15;;;;;;;1.20;1.10;;;;;;;19.85;66.36;99016.83;1718610;82;21910;-55
2021/06/10 06:37:42;;;;;;;1.40;0.90;;;;;;;19.89;66.02;99018.77;1665949;83;21117;-55
2021/06/10 06:40:09;;;;;;;1.10;1.00;;;;;;;19.90;65.68;99020.48;1724625;81;21091;-54
2021/06/10 06:42:36;;;;;;;1.35;1.10;;;;;;;19.91;65.78;99016.72;1672076;83;21882;-56
2021/06/10 06:45:05;;;;;;;1.32;1.22;;;;;;;19.92;65.98;99015.71;1679428;83;20998;-56
2021/06/10 06:47:32;;;;;;;1.27;1.17;;;;;;;19.94;66.40;99015.92;1726967;80;22253;-55
2021/06/10 06:49:58;;;;;;;2.10;1.22;;;;;;;20.01;66.31;99011.58;1724399;82;20955;-56
2021/06/10 06:52:25;;;;;;;2.45;0.90;;;;;;;20.09;66.04;99007.22;1727423;82;21828;-56
2021/06/10 06:54:51;;;;;;;2.95;0.72;;;;;;;20.19;66.20;99001.20;1728382;82;21346;-54
2021/06/10 06:57:19;;;;;;;0.80;0.80;;;;;;;20.33;64.79;99004.80;1666414;83;20891;-56
2021/06/10 06:59:45;;;;;;;1.87;0.70;;;;;;;20.44;64.21;99005.10;1723181;81;20994;-55
2021/06/10 07:02:11;;;;;;;0.60;0.60;;;;;;;20.54;63.38;99009.50;1720172;82;21726;-56
2021/06/10 07:04:38;;;;;;;0.72;0.60;;;;;;;20.63;62.69;99005.83;1721288;81;21113;-57
2021/06/10 07:07:04;;;;;;;1.20;1.00;;;;;;;20.68;61.42;99008.95;1721373;82;21101;-56
2021/06/10 07:09:32;;;;;;;0.80;0.60;;;;;;;20.72;60.80;99002.16;1722305;82;21054;-56
2021/06/10 07:11:58;;;;;;;0.62;0.62;;;;;;;20.76;61.08;98999.95;1723465;82;21139;-57
2021/06/10 07:14:24;;;;;;;0.85;0.70;;;;;;;20.82;60.46;99005.33;1723847;82;21061;-57
2021/06/10 07:16:52;;;;;;;1.95;0.60;;;;;;;20.87;60.33;99005.20;1718082;82;21121;-56
2021/06/10 07:19:18;;;;;;;1.80;0.72;;;;;;;20.91;60.47;99003.88;1718038;82;21031;-56
2021/06/10 07:21:50;;;;;;;0.80;0.70;;;;;;;20.97;59.50;99007.34;1722300;82;21045;-57
2021/06/10 07:24:17;;;;;;;0.70;0.70;;;;;;;21.05;60.10;99004.68;1724828;82;21155;-57
2021/06/10 07:26:44;;;;;;;0.60;0.60;;;;;;;21.15;60.40;98998.61;1723450;82;21149;-56
2021/06/10 07:29:12;;;;;;;2.20;0.60;;;;;;;21.29;59.83;98995.83;1718009;82;21050;-55
2021/06/10 07:31:38;;;;;;;1.27;0.80;;;;;;;21.40;59.43;98991.98;1717655;82;22276;-56
2021/06/10 07:34:06;;;;;;;0.93;0.93;;;;;;;21.49;58.42;98997.86;1662886;83;21110;-56
2021/06/10 07:36:34;;;;;;;1.02;0.60;;;;;;;21.58;58.09;98998.77;1722154;82;21542;-57
2021/06/10 07:39:02;;;;;;;0.70;0.70;;;;;;;21.64;57.09;99003.08;1724873;82;21026;-57
2021/06/10 07:41:30;;;;;;;2.10;0.70;;;;;;;21.62;57.03;99007.86;1726028;82;21444;-57
2021/06/10 07:43:56;;;;;;;2.22;0.80;;;;;;;21.65;57.51;99010.28;1728071;82;21484;-55
2021/06/10 07:46:23;;;;;;;5.80;0.80;;;;;;;21.65;56.58;99004.80;1726847;82;21088;-56
2021/06/10 07:48:50;;;;;;;0.80;0.80;;;;;;;21.62;56.64;99002.88;1728266;82;21135;-55
2021/06/10 07:51:16;;;;;;;0.88;0.70;;;;;;;21.59;57.57;99007.34;1728425;82;21089;-56
2021/06/10 07:53:42;;;;;;;1.60;0.72;;;;;;;21.62;58.49;99009.73;1725807;82;21144;-56
2021/06/10 07:56:09;;;;;;;0.80;0.80;;;;;;;21.63;56.60;99005.98;1730047;82;21089;-57
2021/06/10 07:58:35;;;;;;;1.72;0.70;;;;;;;21.63;57.66;99018.30;1727976;82;21081;-55
2021/06/10 08:01:03;;;;;;;0.80;0.80;;;;;;;21.64;56.85;99009.06;1727805;82;21789;-57
2021/06/10 08:03:29;;;;;;;3.20;0.80;;;;;;;21.67;57.51;99011.49;1730595;82;21041;-55
2021/06/10 08:05:59;;;;;;;1.02;0.85;;;;;;;21.69;57.19;99008.09;1725233;82;21395;-57
2021/06/10 08:08:25;;;;;;;0.95;0.80;;;;;;;21.69;57.55;99007.55;1732065;82;21033;-57
2021/06/10 08:10:52;;;;;;;1.00;0.80;;;;;;;21.68;57.23;99015.95;1728191;82;21121;-58
2021/06/10 08:13:25;;;;;;;1.60;0.90;;;;;;;21.63;57.27;99021.90;1730345;82;21144;-58
2021/06/10 08:15:51;;;;;;;0.80;0.70;;;;;;;21.62;57.87;99010.59;1726309;82;21287;-57
2021/06/10 08:18:19;;;;;;;0.75;0.70;;;;;;;21.59;57.98;99017.78;1726300;82;21042;-56
2021/06/10 08:20:45;;;;;;;1.47;0.78;;;;;;;21.55;57.77;99017.73;1728298;82;21180;-56
2021/06/10 08:23:11;;;;;;;1.07;0.60;;;;;;;21.52;58.06;99007.12;1726983;82;21073;-55
2021/06/10 08:25:43;;;;;;;1.15;0.70;;;;;;;21.49;58.36;99008.81;1724935;82;21112;-57
2021/06/10 08:28:06;;;;;;;0.80;0.80;;;;;;;21.49;58.58;99004.20;1727253;82;21038;-56
2021/06/10 08:30:32;;;;;;;2.50;0.70;;;;;;;21.47;57.51;99008.11;1725975;81;21146;-55
2021/06/10 08:32:59;;;;;;;0.80;0.80;;;;;;;21.48;57.97;99005.21;1729487;82;21161;-56
2021/06/10 08:35:25;;;;;;;1.10;0.70;;;;;;;21.56;58.97;99011.76;1728813;81;21061;-56
2021/06/10 08:37:52;;;;;;;1.77;0.80;;;;;;;21.62;58.87;99007.86;1729100;81;22603;-57
2021/06/10 08:40:19;;;;;;;1.92;0.90;;;;;;;21.67;58.95;99001.40;1667692;83;21485;-56
2021/06/10 08:42:46;;;;;;;2.45;0.98;;;;;;;21.72;59.08;99001.76;1727229;81;20974;-57
2021/06/10 08:45:15;;;;;;;1.22;1.12;;;;;;;21.73;59.02;98997.14;1731481;81;21401;-57
2021/06/10 08:47:46;;;;;;;2.15;0.80;;;;;;;21.77;58.84;98999.41;1734281;81;20990;-56
2021/06/10 08:50:18;;;;;;;1.10;1.00;;;;;;;21.75;59.34;98995.97;1727138;81;21113;-56
2021/06/10 08:52:43;;;;;;;1.40;0.93;;;;;;;21.71;59.02;99000.03;1725779;81;21747;-56
2021/06/10 08:55:14;;;;;;;0.90;0.90;;;;;;;21.63;58.81;99008.20;1728037;81;21464;-57
2021/06/10 08:57:41;;;;;;;0.90;0.90;;;;;;;21.53;59.02;99005.58;1727567;81;21061;-57
2021/06/10 09:00:09;;;;;;;3.20;0.90;;;;;;;21.47;58.88;99007.59;1731062;81;21144;-56
2021/06/10 09:02:36;;;;;;;1.75;0.75;;;;;;;21.40;59.03;99005.66;1730230;81;21076;-56
2021/06/10 09:05:04;;;;;;;5.92;0.90;;;;;;;21.38;58.92;99007.19;1735289;81;20962;-57
2021/06/10 09:07:39;;;;;;;0.90;0.80;;;;;;;21.35;58.79;99006.12;1733352;81;21508;-56
2021/06/10 09:10:07;;;;;;;0.80;0.80;;;;;;;21.31;58.63;99003.89;1733081;81;21605;-57
2021/06/10 09:12:56;;;;;;;0.90;0.62;;;;;;;21.27;58.81;99003.84;1733417;81;21343;-55
2021/06/10 09:15:32;;;;;;;0.90;0.90;;;;;;;21.24;58.86;99002.81;1734596;81;21116;-58
2021/06/10 09:18:02;;;;;;;2.15;0.80;;;;;;;21.21;59.18;99001.75;1713818;82;21492;-56
2021/06/10 09:20:36;;;;;;;1.10;1.00;;;;;;;21.19;59.34;98992.83;1734636;81;21441;-56
2021/06/10 09:23:26;;;;;;;0.90;0.90;;;;;;;21.18;59.45;98989.78;1733772;81;20933;-57
2021/06/10 09:26:03;;;;;;;0.80;0.80;;;;;;;21.17;59.69;98986.66;1731653;81;21026;-55
2021/06/10 09:28:40;;;;;;;1.90;0.70;;;;;;;21.22;59.98;98989.79;1732852;81;21098;-56
2021/06/10 09:31:06;;;;;;;0.80;0.75;;;;;;;21.30;60.02;98992.58;1736840;81;20938;-57
2021/06/10 09:33:41;;;;;;;0.98;0.70;;;;;;;21.42;59.99;98983.10;1733348;81;21074;-57
2021/06/10 09:36:07;;;;;;;0.90;0.80;;;;;;;21.57;58.80;98980.11;1669803;83;21034;-57
2021/06/10 09:38:34;;;;;;;0.80;0.80;;;;;;;21.73;57.37;98972.48;1728969;82;21642;-56
2021/06/10 09:41:06;;;;;;;1.00;1.00;;;;;;;21.86;57.39;98968.27;1737508;82;21079;-56
2021/06/10 09:43:44;;;;;;;1.45;0.80;;;;;;;21.98;57.38;98965.27;1668925;84;21184;-56
2021/06/10 09:46:11;;;;;;;0.90;0.80;;;;;;;22.01;55.48;98969.06;1730035;82;21247;-56
2021/06/10 09:48:37;;;;;;;0.80;0.80;;;;;;;21.99;56.21;98966.98;1670439;84;21481;-55
2021/06/10 09:51:04;;;;;;;0.80;0.80;;;;;;;21.95;56.19;98967.78;1730379;82;21430;-56
2021/06/10 09:53:32;;;;;;;0.70;0.70;;;;;;;21.88;56.02;98971.70;1732317;82;22130;-57
2021/06/10 09:56:08;;;;;;;0.80;0.80;;;;;;;21.79;55.75;98982.27;1732260;81;20955;-56
2021/06/10 09:58:40;;;;;;;1.22;0.80;;;;;;;21.71;56.15;98977.27;1731043;82;21065;-57
2021/06/10 10:01:21;;;;;;;0.80;0.80;;;;;;;21.60;55.23;98985.27;1728685;82;20887;-56
2021/06/10 10:03:47;;;;;;;2.45;1.32;;;;;;;21.50;56.19;98990.86;1726659;82;20946;-58
2021/06/10 10:06:30;;;;;;;4.08;1.15;;;;;;;21.42;57.89;99004.50;1668818;84;21162;-55
2021/06/10 10:09:00;;;;;;;4.00;1.05;;;;;;;21.30;59.44;98995.32;1728804;82;21042;-55
2021/06/10 10:11:28;;;;;;;1.72;0.90;;;;;;;21.15;61.14;98999.12;1728161;82;21046;-56
2021/06/10 10:13:57;;;;;;;0.88;0.88;;;;;;;20.98;62.98;98998.63;1735002;82;21293;-56
2021/06/10 10:16:26;;;;;;;1.85;0.90;;;;;;;20.85;64.09;99001.75;1723118;82;21899;-56
2021/06/10 10:18:53;;;;;;;1.20;0.90;;;;;;;20.75;65.11;98995.53;1730792;82;21108;-55
2021/06/10 10:21:28;;;;;;;0.80;0.80;;;;;;;20.65;64.83;99000.21;1729403;82;21149;-56
2021/06/10 10:23:57;;;;;;;;;;;;;;;20.51;64.10;98989.29;1730872;81;20997;-54
2021/06/10 10:26:23;;;;;;;3.62;0.90;;;;;;;20.41;64.65;98983.56;1732840;82;20213;-55
2021/06/10 10:28:50;;;;;;;1.55;1.00;;;;;;;20.34;65.97;98986.89;1729507;82;21121;-56
2021/06/10 10:31:16;;;;;;;1.05;0.95;;;;;;;20.28;66.49;98992.95;1728377;82;21186;-55
2021/06/10 10:33:45;;;;;;;1.52;1.00;;;;;;;20.25;67.26;98989.14;1731726;82;21057;-55
2021/06/10 10:36:31;;;;;;;3.67;1.10;;;;;;;20.26;67.44;98998.20;1659411;83;21816;-56
2021/06/10 10:39:08;;;;;;;0.93;0.90;;;;;;;20.28;67.71;98997.55;1723737;81;21691;-54
2021/06/10 10:41:52;;;;;;;1.37;1.10;;;;;;;20.33;68.25;98996.60;1720455;81;20939;-55
2021/06/10 10:44:27;;;;;;;;;;;;;;;20.40;68.54;98995.00;1728916;82;21100;-55
2021/06/10 10:47:06;;;;;;;1.15;1.05;;;;;;;20.47;68.07;98988.41;1722863;82;20228;-55
2021/06/10 10:49:43;;;;;;;1.42;1.05;;;;;;;20.49;67.87;98985.88;1725236;82;21365;-55
2021/06/10 10:52:23;;;;;;;1.40;1.30;;;;;;;20.54;67.66;98989.50;1722368;81;21469;-54
2021/06/10 10:54:51;;;;;;;4.20;1.77;;;;;;;20.60;68.01;98987.50;1665911;83;21122;-53
2021/06/10 10:57:39;;;;;;;1.90;1.80;;;;;;;20.63;68.26;98986.69;1722472;81;21168;-54
2021/06/10 11:00:08;;;;;;;2.25;1.40;;;;;;;20.68;68.71;98990.31;1719265;81;21619;-55
2021/06/10 11:02:40;;;;;;;1.30;1.20;;;;;;;20.70;68.05;98985.05;1721012;82;21082;-54
2021/06/10 11:05:09;;;;;;;1.87;1.45;;;;;;;20.73;68.08;98986.62;1684537;82;22215;-55
2021/06/10 11:07:41;;;;;;;1.70;1.40;;;;;;;20.77;68.04;98986.13;1726943;82;20962;-55
2021/06/10 11:10:15;;;;;;;2.35;1.55;;;;;;;20.85;68.04;98985.34;1724043;81;21192;-54
2021/06/10 11:12:52;;;;;;;2.75;1.42;;;;;;;20.94;67.60;98976.19;1662931;83;21492;-56
2021/06/10 11:15:29;;;;;;;3.83;1.67;;;;;;;21.02;67.05;98969.42;1720466;82;20946;-54
2021/06/10 11:17:59;;;;;;;2.45;1.60;;;;;;;21.10;66.20;98966.74;1721726;81;21596;-55
2021/06/10 11:20:42;;;;;;;2.65;1.45;;;;;;;21.19;65.73;98964.95;1719002;82;21101;-54
2021/06/10 11:23:26;;;;;;;1.92;1.30;;;;;;;21.28;65.47;98952.19;1721237;82;21101;-54
2021/06/10 11:25:56;;;;;;;1.67;1.40;;;;;;;21.36;65.17;98957.72;1719174;81;21049;-55
2021/06/10 11:28:31;;;;;;;4.28;1.22;;;;;;;21.43;64.69;98951.46;1663452;83;21503;-54
2021/06/10 11:31:21;;;;;;;1.52;1.00;;;;;;;21.50;64.26;98947.05;1718611;82;21600;-54
2021/06/10 11:33:51;;;;;;;5.53;1.22;;;;;;;21.58;63.27;98947.60;1723088;82;21065;-54
2021/06/10 11:36:19;;;;;;;1.30;1.10;;;;;;;21.64;60.95;98948.31;1723558;82;21117;-55
2021/06/10 11:38:49;;;;;;;1.00;0.90;;;;;;;21.66;60.48;98949.52;1719664;82;21046;-56
2021/06/10 11:41:19;;;;;;;1.30;1.20;;;;;;;21.63;58.64;98949.33;1725104;82;21388;-55